createdAt,value
2022-09-23T00:00:19.879Z,101744.84
2022-09-23T00:03:23.964Z,101688.81
2022-09-23T00:06:28.052Z,101732.91
2022-09-23T00:09:30.742Z,101747.38
2022-09-23T00:12:33.536Z,101743.91
2022-09-23T00:15:39.338Z,101722.41
2022-09-23T00:18:43.714Z,101723.38
2022-09-23T00:21:46.372Z,101727.34
2022-09-23T00:24:49.106Z,101685.53
2022-09-23T00:27:51.862Z,101702.19
2022-09-23T00:30:54.585Z,101674.53
2022-09-23T00:33:59.892Z,101672.63
2022-09-23T00:37:02.607Z,101672.63
2022-09-23T00:40:06.181Z,101677.56
2022-09-23T00:43:10.870Z,101642.97
2022-09-23T00:46:16.598Z,101715.78
2022-09-23T00:49:24.753Z,101663.75
2022-09-23T00:52:28.034Z,101709.38
2022-09-23T00:55:32.955Z,101657.94
2022-09-23T00:58:37.079Z,101673.34
2022-09-23T01:01:39.870Z,101724.50
2022-09-23T01:04:44.087Z,101662.84
2022-09-23T01:07:46.904Z,101687.50
2022-09-23T01:10:52.253Z,101718.63
2022-09-23T01:14:00.471Z,101610.94
2022-09-23T01:17:05.221Z,101715.69
2022-09-23T01:20:32.368Z,101667.97
2022-09-23T01:23:57.205Z,101646.84
2022-09-23T01:27:08.542Z,101708.28
2022-09-23T01:30:18.136Z,101627.13
2022-09-23T01:33:24.261Z,101661.91
2022-09-23T01:36:28.753Z,101619.19
2022-09-23T01:39:35.480Z,101709.06
2022-09-23T01:42:39.611Z,101632.81
2022-09-23T01:45:44.146Z,101660.88
2022-09-23T01:48:51.637Z,101671.34
2022-09-23T01:51:56.993Z,101603.31
2022-09-23T01:55:06.594Z,101577.34
2022-09-23T01:58:10.969Z,101608.63
2022-09-23T02:01:20.300Z,101623.06
2022-09-23T02:04:26.307Z,101612.16
2022-09-23T02:07:30.696Z,101635.97
2022-09-23T02:10:36.004Z,101611.22
2022-09-23T02:13:41.168Z,101647.75
2022-09-23T02:16:45.146Z,101639.91
2022-09-23T02:19:51.814Z,101624.72
2022-09-23T02:22:57.571Z,101654.25
2022-09-23T02:26:04.145Z,101595.75
2022-09-23T02:29:11.820Z,101631.28
2022-09-23T02:32:15.944Z,101595.34
2022-09-23T02:35:22.630Z,101655.03
2022-09-23T02:38:30.424Z,101568.81
2022-09-23T02:41:36.459Z,101651.97
2022-09-23T02:44:39.770Z,101598.59
2022-09-23T02:47:45.035Z,101609.19
2022-09-23T02:50:49.169Z,101606.25
2022-09-23T02:53:52.113Z,101634.75
2022-09-23T02:56:55.118Z,101630.88
2022-09-23T02:59:58.428Z,101551.09
2022-09-23T03:03:18.661Z,101614.56
2022-09-23T03:06:27.053Z,101627.44
2022-09-23T03:09:31.819Z,101634.81
2022-09-23T03:12:38.726Z,101556.44
2022-09-23T03:15:46.093Z,101563.25
2022-09-23T03:18:50.279Z,101620.53
2022-09-23T03:22:00.823Z,101584.94
2022-09-23T03:25:05.929Z,101605.06
2022-09-23T03:28:08.867Z,101555.25
2022-09-23T03:31:12.009Z,101614.56
2022-09-23T03:34:15.600Z,101566.53
2022-09-23T03:37:22.170Z,101543.81
2022-09-23T03:40:26.384Z,101575.38
2022-09-23T03:43:30.064Z,101601.38
2022-09-23T03:46:35.458Z,101611.97
2022-09-23T03:49:39.231Z,101567.75
2022-09-23T03:52:43.368Z,101535.75
2022-09-23T03:55:46.581Z,101566.94
2022-09-23T03:58:49.281Z,101532.13
2022-09-23T04:01:52.140Z,101594.84
2022-09-23T04:04:54.902Z,101564.78
2022-09-23T04:07:58.983Z,101584.34
2022-09-23T04:11:01.886Z,101583.22
2022-09-23T04:14:04.672Z,101587.34
2022-09-23T04:17:07.429Z,101515.88
2022-09-23T04:20:10.780Z,101538.59
2022-09-23T04:23:14.954Z,101579.47
2022-09-23T04:26:19.037Z,101553.69
2022-09-23T04:29:21.793Z,101543.72
2022-09-23T04:32:25.217Z,101572.53
2022-09-23T04:35:27.894Z,101562.59
2022-09-23T04:38:32.077Z,101579.88
2022-09-23T04:41:34.888Z,101575.38
2022-09-23T04:44:38.950Z,101565.69
2022-09-23T04:47:41.670Z,101554.00
2022-09-23T04:50:44.387Z,101552.47
2022-09-23T04:53:49.815Z,101499.66
2022-09-23T04:56:52.570Z,101575.03
2022-09-23T04:59:56.920Z,101568.41
2022-09-23T05:02:59.805Z,101574.72
2022-09-23T05:06:02.739Z,101520.09
2022-09-23T05:09:08.550Z,101575.03
2022-09-23T05:12:11.406Z,101555.38
2022-09-23T05:15:15.130Z,101546.31
2022-09-23T05:18:20.764Z,101576.00
2022-09-23T05:21:24.504Z,101567.59
2022-09-23T05:24:28.592Z,101568.31
2022-09-23T05:27:31.314Z,101525.69
2022-09-23T05:30:34.074Z,101586.47
2022-09-23T05:33:37.401Z,101545.47
2022-09-23T05:36:40.120Z,101582.53
2022-09-23T05:39:44.187Z,101590.44
2022-09-23T05:42:46.851Z,101549.41
2022-09-23T05:45:49.540Z,101580.88
2022-09-23T05:48:52.406Z,101552.25
2022-09-23T05:51:55.060Z,101584.22
2022-09-23T05:54:59.042Z,101590.28
2022-09-23T05:58:01.705Z,101546.41
2022-09-23T06:01:10.406Z,101538.81
2022-09-23T06:04:14.016Z,101537.22
2022-09-23T06:07:16.711Z,101558.06
2022-09-23T06:10:20.799Z,101572.88
2022-09-23T06:13:23.425Z,101574.19
2022-09-23T06:16:26.110Z,101593.28
2022-09-23T06:19:28.759Z,101577.38
2022-09-23T06:22:31.624Z,101541.81
2022-09-23T06:25:36.245Z,101536.00
2022-09-23T06:28:40.342Z,101573.28
2022-09-23T06:31:43.346Z,101571.63
2022-09-23T06:34:51.474Z,101582.59
2022-09-23T06:37:54.729Z,101525.22
2022-09-23T06:40:59.071Z,101583.31
2022-09-23T06:44:02.037Z,101560.75
2022-09-23T06:47:04.747Z,101569.84
2022-09-23T06:50:08.455Z,101571.44
2022-09-23T06:53:11.178Z,101566.81
2022-09-23T06:56:15.335Z,101545.38
2022-09-23T06:59:18.309Z,101561.91
2022-09-23T07:02:21.074Z,101544.34
2022-09-23T07:05:24.082Z,101540.97
2022-09-23T07:08:27.534Z,101514.56
2022-09-23T07:11:31.560Z,101573.34
2022-09-23T07:14:34.205Z,101521.56
2022-09-23T07:17:36.951Z,101559.13
2022-09-23T07:20:39.693Z,101564.91
2022-09-23T07:23:42.595Z,101556.31
2022-09-23T07:26:46.599Z,101572.59
2022-09-23T07:29:50.334Z,101567.31
2022-09-23T07:32:53.132Z,101522.75
2022-09-23T07:35:55.832Z,101573.59
2022-09-23T07:39:00.520Z,101500.88
2022-09-23T07:42:05.695Z,101571.81
2022-09-23T07:45:09.915Z,101548.41
2022-09-23T07:48:12.513Z,101551.56
2022-09-23T07:51:17.581Z,101575.56
2022-09-23T07:54:20.196Z,101528.47
2022-09-23T07:57:24.199Z,101580.50
2022-09-23T08:00:26.901Z,101574.22
2022-09-23T08:03:29.762Z,101579.00
2022-09-23T08:06:32.737Z,101542.94
2022-09-23T08:09:39.323Z,101582.53
2022-09-23T08:12:43.338Z,101579.84
2022-09-23T08:15:53.238Z,101560.34
2022-09-23T08:18:57.942Z,101572.69
2022-09-23T08:22:02.779Z,101521.66
2022-09-23T08:25:08.878Z,101550.56
2022-09-23T08:28:16.295Z,101516.88
2022-09-23T08:31:18.946Z,101582.84
2022-09-23T08:34:22.528Z,101535.03
2022-09-23T08:37:25.107Z,101566.94
2022-09-23T08:40:27.773Z,101583.09
2022-09-23T08:43:32.674Z,101519.38
2022-09-23T08:46:37.590Z,101578.00
2022-09-23T08:49:46.311Z,101586.41
2022-09-23T08:52:52.653Z,101527.50
2022-09-23T08:55:55.994Z,101596.31
2022-09-23T08:59:05.034Z,101589.31
2022-09-23T09:02:10.413Z,101558.97
2022-09-23T09:05:13.098Z,101587.63
2022-09-23T09:08:24.428Z,101525.75
2022-09-23T09:11:31.250Z,101587.94
2022-09-23T09:14:38.604Z,101580.34
2022-09-23T09:17:45.715Z,101578.91
2022-09-23T09:20:52.840Z,101581.88
2022-09-23T09:23:56.457Z,101582.47
2022-09-23T09:26:59.064Z,101585.53
2022-09-23T09:30:02.997Z,101570.56
2022-09-23T09:33:06.748Z,101587.91
2022-09-23T09:36:20.067Z,101557.75
2022-09-23T09:39:26.113Z,101577.84
2022-09-23T09:42:35.669Z,101572.31
2022-09-23T09:45:59.082Z,101521.22
2022-09-23T09:49:03.304Z,101555.66
2022-09-23T09:52:24.069Z,101563.47
2022-09-23T09:55:27.631Z,101536.75
2022-09-23T09:58:33.535Z,101561.63
2022-09-23T10:01:37.530Z,101560.47
2022-09-23T10:04:40.476Z,101520.09
2022-09-23T10:07:43.100Z,101550.47
2022-09-23T10:10:54.815Z,101555.03
2022-09-23T10:14:09.300Z,101544.66
2022-09-23T10:17:16.514Z,101537.28
2022-09-23T10:20:19.284Z,101552.75
2022-09-23T10:23:23.812Z,101517.41
2022-09-23T10:26:27.746Z,101548.66
2022-09-23T10:29:31.545Z,101519.41
2022-09-23T10:32:37.463Z,101547.03
2022-09-23T10:35:40.084Z,101541.41
2022-09-23T10:38:42.664Z,101541.41
2022-09-23T10:42:07.429Z,101543.91
2022-09-23T10:45:37.551Z,101546.28
2022-09-23T10:48:48.694Z,101530.63
2022-09-23T10:51:55.167Z,101540.00
2022-09-23T10:55:02.750Z,101544.28
2022-09-23T10:58:14.332Z,101536.38
2022-09-23T11:01:22.622Z,101491.63
2022-09-23T11:04:46.205Z,101533.66
2022-09-23T11:07:52.455Z,101510.78
2022-09-23T11:11:03.877Z,101488.53
2022-09-23T11:14:17.195Z,101537.63
2022-09-23T11:17:33.393Z,101523.50
2022-09-23T11:20:42.245Z,101528.75
2022-09-23T11:23:55.204Z,101461.72
2022-09-23T11:27:01.202Z,101529.50
2022-09-23T11:30:08.941Z,101492.72
2022-09-23T11:33:24.712Z,101522.47
2022-09-23T11:36:32.627Z,101517.34
2022-09-23T11:39:37.815Z,101519.06
2022-09-23T11:42:43.927Z,101495.63
2022-09-23T11:45:48.227Z,101502.25
2022-09-23T11:48:52.745Z,101455.81
2022-09-23T11:52:02.888Z,101490.16
2022-09-23T11:55:18.633Z,101488.41
2022-09-23T11:58:26.135Z,101502.16
2022-09-23T12:01:37.263Z,101502.97
2022-09-23T12:04:53.359Z,101496.91
2022-09-23T12:08:02.843Z,101489.25
2022-09-23T12:11:07.663Z,101439.41
2022-09-23T12:14:14.106Z,101507.72
2022-09-23T12:17:23.211Z,101494.44
2022-09-23T12:20:36.729Z,101475.50
2022-09-23T12:23:51.012Z,101489.88
2022-09-23T12:26:56.118Z,101491.09
2022-09-23T12:29:59.939Z,101454.34
2022-09-23T12:33:09.953Z,101475.50
2022-09-23T12:36:12.836Z,101420.50
2022-09-23T12:39:18.161Z,101470.69
2022-09-23T12:42:21.255Z,101482.84
2022-09-23T12:45:38.882Z,101468.25
2022-09-23T12:48:46.085Z,101434.22
2022-09-23T12:52:13.605Z,101452.81
2022-09-23T12:55:46.946Z,101477.06
2022-09-23T12:59:14.549Z,101475.50
2022-09-23T13:02:27.469Z,101446.81
2022-09-23T13:05:47.730Z,101389.00
2022-09-23T13:08:50.536Z,101468.19
2022-09-23T13:11:54.565Z,101466.56
2022-09-23T13:15:03.394Z,101467.41
2022-09-23T13:18:40.047Z,101454.88
2022-09-23T13:22:02.925Z,101451.25
2022-09-23T13:25:16.966Z,101432.50
2022-09-23T13:28:29.574Z,101453.03
2022-09-23T13:31:32.228Z,101376.97
2022-09-23T13:34:36.774Z,101431.50
2022-09-23T13:37:43.770Z,101455.00
2022-09-23T13:40:47.705Z,101443.66
2022-09-23T13:43:52.523Z,101448.53
2022-09-23T13:46:56.319Z,101455.03
2022-09-23T13:49:58.940Z,101427.50
2022-09-23T13:53:02.458Z,101434.38
2022-09-23T13:56:06.547Z,101450.13
2022-09-23T13:59:21.559Z,101382.16
2022-09-23T14:02:25.797Z,101378.94
2022-09-23T14:05:28.537Z,101440.84
2022-09-23T14:08:31.200Z,101439.59
2022-09-23T14:11:35.122Z,101408.03
2022-09-23T14:14:40.058Z,101412.09
2022-09-23T14:17:46.455Z,101363.56
2022-09-23T14:20:50.271Z,101385.84
2022-09-23T14:23:52.984Z,101402.06
2022-09-23T14:26:56.562Z,101391.94
2022-09-23T14:30:00.869Z,101406.53
2022-09-23T14:33:08.528Z,101375.78
2022-09-23T14:36:32.925Z,101413.03
2022-09-23T14:39:34.561Z,101370.59
2022-09-23T14:42:41.103Z,101396.00
2022-09-23T14:45:47.176Z,101337.81
2022-09-23T14:49:00.405Z,101399.31
2022-09-23T14:52:06.817Z,101399.25
2022-09-23T14:55:16.231Z,101401.66
2022-09-23T14:58:19.175Z,101385.88
2022-09-23T15:01:36.682Z,101342.56
2022-09-23T15:04:39.312Z,101387.09
2022-09-23T15:07:41.925Z,101383.78
2022-09-23T15:10:44.530Z,101394.28
2022-09-23T15:13:49.387Z,101380.88
2022-09-23T15:16:53.633Z,101311.72
2022-09-23T15:19:57.626Z,101396.66
2022-09-23T15:23:01.720Z,101368.31
2022-09-23T15:26:06.817Z,101338.75
2022-09-23T15:29:09.614Z,101385.13
2022-09-23T15:32:13.642Z,101404.91
2022-09-23T15:35:16.698Z,101342.59
2022-09-23T15:38:19.234Z,101403.50
2022-09-23T15:41:23.956Z,101388.75
2022-09-23T15:44:29.497Z,101399.91
2022-09-23T15:47:33.475Z,101400.19
2022-09-23T15:50:36.244Z,101392.53
2022-09-23T15:53:38.988Z,101402.59
2022-09-23T15:56:42.613Z,101399.66
2022-09-23T15:59:45.196Z,101401.22
2022-09-23T16:02:49.702Z,101393.16
2022-09-23T16:05:52.778Z,101402.81
2022-09-23T16:08:55.497Z,101400.00
2022-09-23T16:12:05.563Z,101343.75
2022-09-23T16:15:11.982Z,101356.69
2022-09-23T16:18:16.229Z,101380.16
2022-09-23T16:21:19.681Z,101373.66
2022-09-23T16:24:27.304Z,101376.13
2022-09-23T16:27:30.724Z,101368.78
2022-09-23T16:30:34.194Z,101367.16
2022-09-23T16:33:38.211Z,101371.25
2022-09-23T16:36:42.215Z,101359.59
2022-09-23T16:39:44.816Z,101365.97
2022-09-23T16:42:47.501Z,101334.78
2022-09-23T16:45:50.170Z,101352.16
2022-09-23T16:48:55.537Z,101361.03
2022-09-23T16:51:58.301Z,101357.78
2022-09-23T16:55:00.871Z,101359.75
2022-09-23T16:58:04.585Z,101356.41
2022-09-23T17:01:25.329Z,101360.41
2022-09-23T17:04:29.377Z,101298.66
2022-09-23T17:07:32.205Z,101344.78
2022-09-23T17:10:34.796Z,101347.28
2022-09-23T17:13:37.387Z,101356.19
2022-09-23T17:16:40.096Z,101348.13
2022-09-23T17:19:44.103Z,101355.47
2022-09-23T17:22:46.664Z,101361.94
2022-09-23T17:25:49.292Z,101366.00
2022-09-23T17:28:52.003Z,101330.41
2022-09-23T17:31:54.627Z,101347.38
2022-09-23T17:35:04.312Z,101325.53
2022-09-23T17:38:06.929Z,101345.84
2022-09-23T17:41:09.896Z,101351.38
2022-09-23T17:44:12.533Z,101345.44
2022-09-23T17:47:15.131Z,101340.16
2022-09-23T17:50:19.545Z,101345.09
2022-09-23T17:53:22.282Z,101309.34
2022-09-23T17:56:25.814Z,101306.97
2022-09-23T17:59:28.409Z,101337.81
2022-09-23T18:02:31.003Z,101335.50
2022-09-23T18:05:35.149Z,101311.88
2022-09-23T18:08:38.952Z,101330.75
2022-09-23T18:11:42.785Z,101324.59
2022-09-23T18:14:47.672Z,101333.38
2022-09-23T18:17:50.520Z,101351.91
2022-09-23T18:20:54.533Z,101305.72
2022-09-23T18:24:06.491Z,101356.41
2022-09-23T18:27:19.894Z,101314.97
2022-09-23T18:30:22.510Z,101356.59
2022-09-23T18:33:25.130Z,101345.84
2022-09-23T18:36:30.200Z,101362.50
2022-09-23T18:39:32.752Z,101326.34
2022-09-23T18:42:35.472Z,101375.75
2022-09-23T18:45:38.127Z,101345.56
2022-09-23T18:48:58.570Z,101352.16
2022-09-23T18:52:03.157Z,101374.03
2022-09-23T18:55:06.407Z,101338.75
2022-09-23T18:58:10.355Z,101327.69
2022-09-23T19:01:13.018Z,101378.72
2022-09-23T19:04:17.094Z,101337.72
2022-09-23T19:07:21.073Z,101374.94
2022-09-23T19:10:23.670Z,101372.03
2022-09-23T19:13:26.302Z,101376.97
2022-09-23T19:16:29.223Z,101326.50
2022-09-23T19:19:32.030Z,101336.81
2022-09-23T19:22:36.003Z,101370.53
2022-09-23T19:25:38.596Z,101360.13
2022-09-23T19:28:41.307Z,101321.06
2022-09-23T19:31:44.160Z,101348.78
2022-09-23T19:34:46.825Z,101360.84
2022-09-23T19:37:50.770Z,101358.81
2022-09-23T19:40:53.810Z,101356.28
2022-09-23T19:44:03.221Z,101351.84
2022-09-23T19:47:06.319Z,101349.34
2022-09-23T19:50:09.603Z,101321.22
2022-09-23T19:53:13.811Z,101344.19
2022-09-23T19:56:17.979Z,101351.59
2022-09-23T19:59:20.592Z,101349.19
2022-09-23T20:02:23.189Z,101344.50
2022-09-23T20:05:26.894Z,101281.59
2022-09-23T20:08:30.974Z,101295.84
2022-09-23T20:11:34.524Z,101337.25
2022-09-23T20:14:37.116Z,101326.28
2022-09-23T20:17:40.769Z,101276.63
2022-09-23T20:20:43.481Z,101332.13
2022-09-23T20:23:47.430Z,101278.41
2022-09-23T20:27:07.681Z,101318.50
2022-09-23T20:30:11.889Z,101333.78
2022-09-23T20:33:15.160Z,101335.78
2022-09-23T20:36:17.735Z,101282.22
2022-09-23T20:39:21.929Z,101318.81
2022-09-23T20:42:24.564Z,101295.56
2022-09-23T20:45:27.211Z,101272.19
2022-09-23T20:48:30.388Z,101326.34
2022-09-23T20:51:34.013Z,101323.53
2022-09-23T20:54:39.176Z,101259.06
2022-09-23T20:57:41.812Z,101322.78
2022-09-23T21:00:44.464Z,101316.47
2022-09-23T21:03:48.021Z,101283.94
2022-09-23T21:06:50.580Z,101316.53
2022-09-23T21:09:54.801Z,101306.06
2022-09-23T21:12:57.457Z,101318.25
2022-09-23T21:16:03.178Z,101307.31
2022-09-23T21:19:08.124Z,101311.00
2022-09-23T21:22:12.254Z,101306.94
2022-09-23T21:25:27.349Z,101299.28
2022-09-23T21:28:32.258Z,101302.00
2022-09-23T21:31:36.132Z,101303.56
2022-09-23T21:34:38.720Z,101253.34
2022-09-23T21:37:41.306Z,101286.75
2022-09-23T21:40:57.498Z,101292.56
2022-09-23T21:44:00.654Z,101237.13
2022-09-23T21:47:03.450Z,101254.97
2022-09-23T21:50:07.345Z,101288.31
2022-09-23T21:53:09.952Z,101288.00
2022-09-23T21:56:20.278Z,101268.13
2022-09-23T21:59:23.402Z,101288.31
2022-09-23T22:02:25.980Z,101273.72
2022-09-23T22:05:28.571Z,101280.19
2022-09-23T22:08:34.996Z,101235.41
2022-09-23T22:11:56.877Z,101270.00
2022-09-23T22:14:59.429Z,101267.06
2022-09-23T22:18:02.289Z,101248.75
2022-09-23T22:21:05.261Z,101268.78
2022-09-23T22:24:09.306Z,101230.22
2022-09-23T22:27:13.984Z,101266.34
2022-09-23T22:30:34.251Z,101267.22
2022-09-23T22:33:36.837Z,101261.28
2022-09-23T22:36:39.393Z,101221.44
2022-09-23T22:39:41.946Z,101273.09
2022-09-23T22:42:46.114Z,101273.41
2022-09-23T22:45:50.523Z,101269.59
2022-09-23T22:48:53.384Z,101264.78
2022-09-23T22:51:55.988Z,101257.63
2022-09-23T22:54:58.549Z,101214.31
2022-09-23T22:58:21.267Z,101262.06
2022-09-23T23:01:25.692Z,101252.19
2022-09-23T23:04:29.686Z,101249.22
2022-09-23T23:07:34.094Z,101254.53
2022-09-23T23:10:37.331Z,101252.19
2022-09-23T23:13:41.798Z,101206.78
2022-09-23T23:16:45.091Z,101245.72
2022-09-23T23:19:48.146Z,101247.59
2022-09-23T23:22:50.713Z,101231.03
2022-09-23T23:25:53.321Z,101230.94
2022-09-23T23:28:57.591Z,101225.19
2022-09-23T23:32:00.152Z,101229.56
2022-09-23T23:35:02.715Z,101217.03
2022-09-23T23:38:06.411Z,101236.09
2022-09-23T23:41:10.884Z,101232.34
2022-09-23T23:44:14.880Z,101229.91
2022-09-23T23:47:17.460Z,101211.59
2022-09-23T23:50:20.073Z,101235.56
2022-09-23T23:53:22.648Z,101231.97
2022-09-23T23:56:25.687Z,101229.25
2022-09-23T23:59:29.645Z,101217.19
